メインページ
METAR-TAF:

METAR-TAF

空港 :

ハマダーン, イラン

緯度: 34-52-05N, 経度: 048-33-08E, 海抜: 1757m

現時点の気象観測

当レポートは1時間16分前の13:51(UTC)に作成
西の風 4kt
気温 6°C
湿度 65%
気圧 1022 hPa
視程10km以上
高度3500ftの雲はほとんどない, 積乱雲.
高度4000ftの千切れ雲あり

METAR: OIHH 181351Z 27004KT 9999 FEW035CB BKN040 06/M00 Q1022

時間: 18:37 (15:07 UTC)


TAF: 見つかりません

4,000以上の空港の気象観測と天気予報(METAR報とTAF報)

利用可能な観測所は地図上に黄色い丸と赤い丸で示す。

丸の上にカーソルを重ねると観測所名を参照できる。

次にクリックすると気象観測と天気予報を参照できる。

マップの切り替え:黒色「×」印の緑ボタンをクリックして拡大、「-」印の緑ボタンをクリックして縮小、緑色の三角印をクリックして隣りの地図に切り替え


METAR-TAF: